sensor_id;sensor_type;location;lat;lon;timestamp;pressure;altitude;pressure_sealevel;temperature;humidity
60646;BME280;46462;32.608;-117.032;2023-08-20T00:00:44;98833.39;;;29.05;47.47
60646;BME280;46462;32.608;-117.032;2023-08-20T00:03:14;98824.92;;;29.06;47.46
60646;BME280;46462;32.608;-117.032;2023-08-20T00:05:45;98818.14;;;29.05;47.52
60646;BME280;46462;32.608;-117.032;2023-08-20T00:08:15;98817.31;;;29.06;47.51
60646;BME280;46462;32.608;-117.032;2023-08-20T00:10:46;98814.78;;;29.05;47.55
60646;BME280;46462;32.608;-117.032;2023-08-20T00:13:17;98815.23;;;29.06;47.53
60646;BME280;46462;32.608;-117.032;2023-08-20T00:15:48;98816.59;;;29.05;47.56
60646;BME280;46462;32.608;-117.032;2023-08-20T00:18:18;98816.60;;;29.07;47.61
60646;BME280;46462;32.608;-117.032;2023-08-20T00:20:49;98808.78;;;29.06;47.57
60646;BME280;46462;32.608;-117.032;2023-08-20T00:23:19;98811.74;;;29.07;47.57
60646;BME280;46462;32.608;-117.032;2023-08-20T00:25:50;98815.74;;;29.08;47.59
60646;BME280;46462;32.608;-117.032;2023-08-20T00:28:21;98817.80;;;29.08;47.58
60646;BME280;46462;32.608;-117.032;2023-08-20T00:30:50;98816.98;;;29.05;47.65
60646;BME280;46462;32.608;-117.032;2023-08-20T00:33:21;98812.08;;;29.04;47.64
60646;BME280;46462;32.608;-117.032;2023-08-20T00:35:52;98802.01;;;29.03;47.67
60646;BME280;46462;32.608;-117.032;2023-08-20T00:38:22;98795.57;;;29.04;47.68
60646;BME280;46462;32.608;-117.032;2023-08-20T00:40:53;98790.77;;;29.03;47.73
60646;BME280;46462;32.608;-117.032;2023-08-20T00:43:24;98782.18;;;29.03;47.73
60646;BME280;46462;32.608;-117.032;2023-08-20T00:45:54;98772.88;;;29.03;47.71
60646;BME280;46462;32.608;-117.032;2023-08-20T00:48:25;98773.37;;;29.04;47.75
60646;BME280;46462;32.608;-117.032;2023-08-20T00:50:55;98772.58;;;29.04;47.80
60646;BME280;46462;32.608;-117.032;2023-08-20T00:53:26;98769.23;;;29.04;47.83
60646;BME280;46462;32.608;-117.032;2023-08-20T00:55:56;98763.09;;;29.04;47.82
60646;BME280;46462;32.608;-117.032;2023-08-20T00:58:27;98760.32;;;29.04;47.84
60646;BME280;46462;32.608;-117.032;2023-08-20T01:00:58;98757.58;;;29.03;47.91
60646;BME280;46462;32.608;-117.032;2023-08-20T01:03:28;98753.44;;;29.04;47.89
60646;BME280;46462;32.608;-117.032;2023-08-20T01:06:04;98755.30;;;29.03;47.90
60646;BME280;46462;32.608;-117.032;2023-08-20T01:08:35;98758.90;;;29.03;47.89
60646;BME280;46462;32.608;-117.032;2023-08-20T01:11:06;98761.06;;;29.03;47.94
60646;BME280;46462;32.608;-117.032;2023-08-20T01:13:31;98759.76;;;29.02;47.91
60646;BME280;46462;32.608;-117.032;2023-08-20T01:16:01;98757.18;;;29.01;47.96
60646;BME280;46462;32.608;-117.032;2023-08-20T01:18:32;98757.61;;;29.01;47.94
60646;BME280;46462;32.608;-117.032;2023-08-20T01:21:10;98760.90;;;29.02;47.92
60646;BME280;46462;32.608;-117.032;2023-08-20T01:26:19;98756.18;;;29.09;47.75
60646;BME280;46462;32.608;-117.032;2023-08-20T01:28:35;98752.92;;;29.12;47.71
60646;BME280;46462;32.608;-117.032;2023-08-20T01:31:05;98749.67;;;29.13;47.68
60646;BME280;46462;32.608;-117.032;2023-08-20T01:33:36;98745.80;;;29.13;47.71
60646;BME280;46462;32.608;-117.032;2023-08-20T01:36:08;98743.03;;;29.12;47.71
60646;BME280;46462;32.608;-117.032;2023-08-20T01:38:37;98738.06;;;29.13;47.68
60646;BME280;46462;32.608;-117.032;2023-08-20T01:41:07;98735.42;;;29.12;47.68
60646;BME280;46462;32.608;-117.032;2023-08-20T01:43:38;98735.68;;;29.12;47.73
60646;BME280;46462;32.608;-117.032;2023-08-20T01:46:09;98734.66;;;29.13;47.73
60646;BME280;46462;32.608;-117.032;2023-08-20T01:48:39;98734.35;;;29.12;47.74
60646;BME280;46462;32.608;-117.032;2023-08-20T01:51:09;98734.10;;;29.13;47.72
60646;BME280;46462;32.608;-117.032;2023-08-20T01:53:40;98734.75;;;29.12;47.70
60646;BME280;46462;32.608;-117.032;2023-08-20T01:56:12;98732.33;;;29.12;47.71
60646;BME280;46462;32.608;-117.032;2023-08-20T01:58:41;98731.70;;;29.12;47.71
60646;BME280;46462;32.608;-117.032;2023-08-20T02:01:12;98736.78;;;29.12;47.73
60646;BME280;46462;32.608;-117.032;2023-08-20T02:03:42;98739.69;;;29.12;47.75
60646;BME280;46462;32.608;-117.032;2023-08-20T02:06:13;98734.45;;;29.12;47.75
60646;BME280;46462;32.608;-117.032;2023-08-20T02:08:43;98734.20;;;29.11;47.76
60646;BME280;46462;32.608;-117.032;2023-08-20T02:11:14;98732.85;;;29.11;47.73
60646;BME280;46462;32.608;-117.032;2023-08-20T02:13:45;98726.93;;;29.12;47.73
60646;BME280;46462;32.608;-117.032;2023-08-20T02:16:15;98720.47;;;29.12;47.72
60646;BME280;46462;32.608;-117.032;2023-08-20T02:18:46;98718.73;;;29.12;47.73
60646;BME280;46462;32.608;-117.032;2023-08-20T02:21:16;98725.51;;;29.12;47.78
60646;BME280;46462;32.608;-117.032;2023-08-20T02:23:47;98726.12;;;29.12;47.79
60646;BME280;46462;32.608;-117.032;2023-08-20T02:26:17;98732.45;;;29.12;47.78
60646;BME280;46462;32.608;-117.032;2023-08-20T02:28:48;98738.31;;;29.11;47.79
60646;BME280;46462;32.608;-117.032;2023-08-20T02:31:19;98734.68;;;29.10;47.80
60646;BME280;46462;32.608;-117.032;2023-08-20T02:33:49;98730.80;;;29.08;47.79
60646;BME280;46462;32.608;-117.032;2023-08-20T02:36:20;98729.05;;;29.06;47.84
60646;BME280;46462;32.608;-117.032;2023-08-20T02:38:50;98726.21;;;29.05;47.84
60646;BME280;46462;32.608;-117.032;2023-08-20T02:41:21;98722.80;;;29.05;47.89
60646;BME280;46462;32.608;-117.032;2023-08-20T02:43:52;98720.27;;;29.03;47.94
60646;BME280;46462;32.608;-117.032;2023-08-20T02:46:22;98724.04;;;29.04;47.92
60646;BME280;46462;32.608;-117.032;2023-08-20T02:48:53;98728.48;;;29.03;47.95
60646;BME280;46462;32.608;-117.032;2023-08-20T02:51:23;98731.88;;;29.03;47.99
60646;BME280;46462;32.608;-117.032;2023-08-20T02:53:54;98731.51;;;29.03;47.96
60646;BME280;46462;32.608;-117.032;2023-08-20T02:56:24;98731.67;;;29.03;47.91
60646;BME280;46462;32.608;-117.032;2023-08-20T02:58:55;98728.97;;;29.02;47.95
60646;BME280;46462;32.608;-117.032;2023-08-20T03:01:26;98728.35;;;29.02;47.96
60646;BME280;46462;32.608;-117.032;2023-08-20T03:03:56;98726.01;;;29.03;47.97
60646;BME280;46462;32.608;-117.032;2023-08-20T03:06:27;98720.27;;;29.02;47.96
60646;BME280;46462;32.608;-117.032;2023-08-20T03:08:57;98721.74;;;29.01;48.02
60646;BME280;46462;32.608;-117.032;2023-08-20T03:11:28;98722.67;;;29.01;47.99
60646;BME280;46462;32.608;-117.032;2023-08-20T03:13:59;98722.72;;;29.02;48.02
60646;BME280;46462;32.608;-117.032;2023-08-20T03:16:29;98727.09;;;29.03;47.98
60646;BME280;46462;32.608;-117.032;2023-08-20T03:19:00;98725.04;;;29.03;47.97
60646;BME280;46462;32.608;-117.032;2023-08-20T03:21:30;98724.49;;;29.06;47.89
60646;BME280;46462;32.608;-117.032;2023-08-20T03:24:01;98731.34;;;29.09;47.82
60646;BME280;46462;32.608;-117.032;2023-08-20T03:26:31;98734.27;;;29.12;47.76
60646;BME280;46462;32.608;-117.032;2023-08-20T03:29:02;98733.71;;;29.11;47.80
60646;BME280;46462;32.608;-117.032;2023-08-20T03:31:33;98736.53;;;29.11;47.80
60646;BME280;46462;32.608;-117.032;2023-08-20T03:34:03;98738.27;;;29.11;47.79
60646;BME280;46462;32.608;-117.032;2023-08-20T03:36:34;98743.48;;;29.11;47.80
60646;BME280;46462;32.608;-117.032;2023-08-20T03:39:04;98743.65;;;29.10;47.83
60646;BME280;46462;32.608;-117.032;2023-08-20T03:41:35;98742.53;;;29.11;47.80
60646;BME280;46462;32.608;-117.032;2023-08-20T03:44:06;98745.89;;;29.10;47.82
60646;BME280;46462;32.608;-117.032;2023-08-20T03:46:36;98747.58;;;29.12;47.81
60646;BME280;46462;32.608;-117.032;2023-08-20T03:49:06;98748.08;;;29.16;47.68
60646;BME280;46462;32.608;-117.032;2023-08-20T03:51:37;98750.06;;;29.13;47.78
60646;BME280;46462;32.608;-117.032;2023-08-20T03:54:08;98751.08;;;29.11;47.82
60646;BME280;46462;32.608;-117.032;2023-08-20T03:56:38;98753.09;;;29.10;47.85
60646;BME280;46462;32.608;-117.032;2023-08-20T03:59:09;98751.93;;;29.08;47.90
60646;BME280;46462;32.608;-117.032;2023-08-20T04:01:39;98751.77;;;29.08;47.92
60646;BME280;46462;32.608;-117.032;2023-08-20T04:04:10;98754.32;;;29.08;47.95
60646;BME280;46462;32.608;-117.032;2023-08-20T04:06:41;98758.08;;;29.08;47.93
60646;BME280;46462;32.608;-117.032;2023-08-20T04:09:11;98753.21;;;29.07;47.95
60646;BME280;46462;32.608;-117.032;2023-08-20T04:11:42;98753.46;;;29.08;47.92
60646;BME280;46462;32.608;-117.032;2023-08-20T04:14:13;98754.95;;;29.06;47.96
60646;BME280;46462;32.608;-117.032;2023-08-20T04:16:43;98755.76;;;29.08;47.92
60646;BME280;46462;32.608;-117.032;2023-08-20T04:19:14;98750.01;;;29.08;47.90
60646;BME280;46462;32.608;-117.032;2023-08-20T04:21:44;98744.86;;;29.08;47.91
60646;BME280;46462;32.608;-117.032;2023-08-20T04:24:14;98740.55;;;29.06;47.96
60646;BME280;46462;32.608;-117.032;2023-08-20T04:26:45;98742.12;;;29.06;47.96
60646;BME280;46462;32.608;-117.032;2023-08-20T04:29:16;98740.37;;;29.04;48.02
60646;BME280;46462;32.608;-117.032;2023-08-20T04:31:46;98740.07;;;29.01;48.09
60646;BME280;46462;32.608;-117.032;2023-08-20T04:34:16;98741.32;;;28.99;48.22
60646;BME280;46462;32.608;-117.032;2023-08-20T04:36:47;98735.40;;;28.98;48.27
60646;BME280;46462;32.608;-117.032;2023-08-20T04:39:18;98723.69;;;28.95;48.30
60646;BME280;46462;32.608;-117.032;2023-08-20T04:41:48;98725.17;;;28.95;48.29
60646;BME280;46462;32.608;-117.032;2023-08-20T04:44:19;98726.11;;;28.93;48.39
60646;BME280;46462;32.608;-117.032;2023-08-20T04:46:49;98725.85;;;28.94;48.30
60646;BME280;46462;32.608;-117.032;2023-08-20T04:49:20;98726.72;;;28.91;48.39
60646;BME280;46462;32.608;-117.032;2023-08-20T04:51:51;98724.61;;;28.93;48.36
60646;BME280;46462;32.608;-117.032;2023-08-20T04:54:21;98724.11;;;28.91;48.41
60646;BME280;46462;32.608;-117.032;2023-08-20T04:56:52;98724.11;;;28.92;48.40
60646;BME280;46462;32.608;-117.032;2023-08-20T04:59:22;98723.95;;;28.90;48.44
60646;BME280;46462;32.608;-117.032;2023-08-20T05:01:53;98720.95;;;28.91;48.44
60646;BME280;46462;32.608;-117.032;2023-08-20T05:04:24;98717.19;;;28.89;48.46
60646;BME280;46462;32.608;-117.032;2023-08-20T05:06:54;98710.53;;;28.89;48.44
60646;BME280;46462;32.608;-117.032;2023-08-20T05:09:25;98705.25;;;28.88;48.48
60646;BME280;46462;32.608;-117.032;2023-08-20T05:11:55;98702.73;;;28.88;48.46
60646;BME280;46462;32.608;-117.032;2023-08-20T05:14:26;98700.02;;;28.88;48.47
60646;BME280;46462;32.608;-117.032;2023-08-20T05:16:57;98700.74;;;28.88;48.50
60646;BME280;46462;32.608;-117.032;2023-08-20T05:19:27;98700.00;;;28.87;48.50
60646;BME280;46462;32.608;-117.032;2023-08-20T05:21:58;98695.71;;;28.88;48.48
60646;BME280;46462;32.608;-117.032;2023-08-20T05:24:28;98696.31;;;28.90;48.46
60646;BME280;46462;32.608;-117.032;2023-08-20T05:27:06;98695.27;;;29.04;48.05
60646;BME280;46462;32.608;-117.032;2023-08-20T05:29:30;98695.34;;;29.01;48.13
60646;BME280;46462;32.608;-117.032;2023-08-20T05:32:00;98691.93;;;29.02;48.08
60646;BME280;46462;32.608;-117.032;2023-08-20T05:34:31;98686.47;;;28.98;48.19
60646;BME280;46462;32.608;-117.032;2023-08-20T05:37:01;98685.26;;;28.97;48.20
60646;BME280;46462;32.608;-117.032;2023-08-20T05:39:37;98682.04;;;28.94;48.30
60646;BME280;46462;32.608;-117.032;2023-08-20T05:42:03;98683.45;;;28.94;48.30
60646;BME280;46462;32.608;-117.032;2023-08-20T05:44:33;98679.59;;;28.98;48.14
60646;BME280;46462;32.608;-117.032;2023-08-20T05:47:04;98675.27;;;28.97;48.14
60646;BME280;46462;32.608;-117.032;2023-08-20T05:49:34;98671.71;;;28.94;48.24
60646;BME280;46462;32.608;-117.032;2023-08-20T05:52:05;98670.92;;;28.94;48.28
60646;BME280;46462;32.608;-117.032;2023-08-20T05:54:35;98668.18;;;28.90;48.34
60646;BME280;46462;32.608;-117.032;2023-08-20T05:57:06;98664.16;;;28.91;48.34
60646;BME280;46462;32.608;-117.032;2023-08-20T05:59:36;98665.40;;;28.90;48.36
60646;BME280;46462;32.608;-117.032;2023-08-20T06:02:07;98665.81;;;28.91;48.31
60646;BME280;46462;32.608;-117.032;2023-08-20T06:04:38;98671.48;;;28.90;48.34
60646;BME280;46462;32.608;-117.032;2023-08-20T06:07:08;98669.71;;;28.91;48.32
60646;BME280;46462;32.608;-117.032;2023-08-20T06:09:39;98672.38;;;28.89;48.36
60646;BME280;46462;32.608;-117.032;2023-08-20T06:12:10;98659.84;;;28.90;48.36
60646;BME280;46462;32.608;-117.032;2023-08-20T06:14:40;98663.11;;;28.88;48.39
60646;BME280;46462;32.608;-117.032;2023-08-20T06:17:10;98663.17;;;28.89;48.39
60646;BME280;46462;32.608;-117.032;2023-08-20T06:19:41;98663.43;;;28.88;48.39
60646;BME280;46462;32.608;-117.032;2023-08-20T06:22:11;98664.55;;;28.88;48.43
60646;BME280;46462;32.608;-117.032;2023-08-20T06:24:42;98666.73;;;28.87;48.45
60646;BME280;46462;32.608;-117.032;2023-08-20T06:27:12;98663.03;;;28.86;48.45
60646;BME280;46462;32.608;-117.032;2023-08-20T06:29:43;98658.36;;;28.84;48.51
60646;BME280;46462;32.608;-117.032;2023-08-20T06:32:14;98656.53;;;28.83;48.55
60646;BME280;46462;32.608;-117.032;2023-08-20T06:34:44;98661.20;;;28.82;48.59
60646;BME280;46462;32.608;-117.032;2023-08-20T06:37:15;98658.13;;;28.82;48.56
60646;BME280;46462;32.608;-117.032;2023-08-20T06:39:46;98654.72;;;28.81;48.59
60646;BME280;46462;32.608;-117.032;2023-08-20T06:42:16;98656.15;;;28.81;48.59
60646;BME280;46462;32.608;-117.032;2023-08-20T06:44:47;98655.52;;;28.82;48.55
60646;BME280;46462;32.608;-117.032;2023-08-20T06:47:17;98654.21;;;28.83;48.55
60646;BME280;46462;32.608;-117.032;2023-08-20T06:49:49;98653.80;;;28.83;48.55
60646;BME280;46462;32.608;-117.032;2023-08-20T06:52:18;98649.55;;;28.86;48.49
60646;BME280;46462;32.608;-117.032;2023-08-20T06:54:49;98646.29;;;28.84;48.49
60646;BME280;46462;32.608;-117.032;2023-08-20T06:57:20;98646.39;;;28.83;48.50
60646;BME280;46462;32.608;-117.032;2023-08-20T06:59:50;98631.79;;;28.82;48.55
60646;BME280;46462;32.608;-117.032;2023-08-20T07:02:21;98632.25;;;28.83;48.51
60646;BME280;46462;32.608;-117.032;2023-08-20T07:04:51;98625.96;;;28.81;48.53
60646;BME280;46462;32.608;-117.032;2023-08-20T07:07:22;98622.67;;;28.82;48.52
60646;BME280;46462;32.608;-117.032;2023-08-20T07:09:53;98623.37;;;28.81;48.55
60646;BME280;46462;32.608;-117.032;2023-08-20T07:12:23;98622.49;;;28.82;48.51
60646;BME280;46462;32.608;-117.032;2023-08-20T07:14:54;98617.04;;;28.80;48.54
60646;BME280;46462;32.608;-117.032;2023-08-20T07:17:24;98613.20;;;28.82;48.53
60646;BME280;46462;32.608;-117.032;2023-08-20T07:19:55;98609.10;;;28.81;48.54
60646;BME280;46462;32.608;-117.032;2023-08-20T07:22:26;98604.66;;;28.81;48.50
60646;BME280;46462;32.608;-117.032;2023-08-20T07:24:56;98601.49;;;28.79;48.59
60646;BME280;46462;32.608;-117.032;2023-08-20T07:27:27;98595.58;;;28.77;48.60
60646;BME280;46462;32.608;-117.032;2023-08-20T07:29:58;98594.67;;;28.75;48.65
60646;BME280;46462;32.608;-117.032;2023-08-20T07:32:28;98595.02;;;28.76;48.65
60646;BME280;46462;32.608;-117.032;2023-08-20T07:34:59;98597.35;;;28.75;48.68
60646;BME280;46462;32.608;-117.032;2023-08-20T07:37:29;98599.51;;;28.77;48.63
60646;BME280;46462;32.608;-117.032;2023-08-20T07:40:00;98601.27;;;28.75;48.68
60646;BME280;46462;32.608;-117.032;2023-08-20T07:42:31;98600.92;;;28.76;48.62
60646;BME280;46462;32.608;-117.032;2023-08-20T07:45:01;98601.51;;;28.78;48.58
60646;BME280;46462;32.608;-117.032;2023-08-20T07:47:31;98603.18;;;28.86;48.38
60646;BME280;46462;32.608;-117.032;2023-08-20T07:50:02;98598.23;;;28.87;48.36
60646;BME280;46462;32.608;-117.032;2023-08-20T07:52:33;98592.62;;;28.86;48.34
60646;BME280;46462;32.608;-117.032;2023-08-20T07:55:09;98585.80;;;28.84;48.39
60646;BME280;46462;32.608;-117.032;2023-08-20T07:57:39;98584.51;;;28.85;48.39
60646;BME280;46462;32.608;-117.032;2023-08-20T08:00:11;98579.97;;;28.83;48.45
60646;BME280;46462;32.608;-117.032;2023-08-20T08:02:40;98581.58;;;28.83;48.45
60646;BME280;46462;32.608;-117.032;2023-08-20T08:05:11;98575.54;;;28.82;48.46
60646;BME280;46462;32.608;-117.032;2023-08-20T08:07:41;98570.39;;;28.83;48.39
60646;BME280;46462;32.608;-117.032;2023-08-20T08:10:12;98567.20;;;28.82;48.43
60646;BME280;46462;32.608;-117.032;2023-08-20T08:12:42;98558.93;;;28.83;48.38
60646;BME280;46462;32.608;-117.032;2023-08-20T08:15:13;98557.94;;;28.81;48.42
60646;BME280;46462;32.608;-117.032;2023-08-20T08:17:44;98552.66;;;28.82;48.39
60646;BME280;46462;32.608;-117.032;2023-08-20T08:20:14;98548.85;;;28.80;48.45
60646;BME280;46462;32.608;-117.032;2023-08-20T08:22:45;98543.82;;;28.80;48.48
60646;BME280;46462;32.608;-117.032;2023-08-20T08:25:15;98539.97;;;28.77;48.52
60646;BME280;46462;32.608;-117.032;2023-08-20T08:27:46;98540.28;;;28.79;48.48
60646;BME280;46462;32.608;-117.032;2023-08-20T08:30:17;98541.71;;;28.75;48.54
60646;BME280;46462;32.608;-117.032;2023-08-20T08:32:47;98543.50;;;28.75;48.64
60646;BME280;46462;32.608;-117.032;2023-08-20T08:35:19;98534.74;;;28.71;48.69
60646;BME280;46462;32.608;-117.032;2023-08-20T08:37:48;98532.94;;;28.71;48.67
60646;BME280;46462;32.608;-117.032;2023-08-20T08:40:19;98530.60;;;28.68;48.73
60646;BME280;46462;32.608;-117.032;2023-08-20T08:42:50;98528.46;;;28.69;48.73
60646;BME280;46462;32.608;-117.032;2023-08-20T08:45:21;98524.28;;;28.67;48.81
60646;BME280;46462;32.608;-117.032;2023-08-20T08:47:51;98520.67;;;28.67;48.82
60646;BME280;46462;32.608;-117.032;2023-08-20T08:50:22;98516.98;;;28.66;48.87
60646;BME280;46462;32.608;-117.032;2023-08-20T08:52:52;98514.78;;;28.67;48.81
60646;BME280;46462;32.608;-117.032;2023-08-20T08:55:22;98512.12;;;28.66;48.88
60646;BME280;46462;32.608;-117.032;2023-08-20T08:57:53;98510.30;;;28.65;48.85
60646;BME280;46462;32.608;-117.032;2023-08-20T09:00:24;98511.57;;;28.64;48.90
60646;BME280;46462;32.608;-117.032;2023-08-20T09:02:54;98509.41;;;28.64;48.85
60646;BME280;46462;32.608;-117.032;2023-08-20T09:05:24;98508.25;;;28.67;48.82
60646;BME280;46462;32.608;-117.032;2023-08-20T09:07:56;98510.30;;;28.68;48.77
60646;BME280;46462;32.608;-117.032;2023-08-20T09:10:27;98506.62;;;28.65;48.84
60646;BME280;46462;32.608;-117.032;2023-08-20T09:12:56;98506.36;;;28.63;48.89
60646;BME280;46462;32.608;-117.032;2023-08-20T09:15:33;98502.61;;;28.61;48.93
60646;BME280;46462;32.608;-117.032;2023-08-20T09:17:57;98499.40;;;28.65;48.80
60646;BME280;46462;32.608;-117.032;2023-08-20T09:20:34;98498.67;;;28.66;48.79
60646;BME280;46462;32.608;-117.032;2023-08-20T09:22:59;98493.15;;;28.68;48.67
60646;BME280;46462;32.608;-117.032;2023-08-20T09:25:29;98487.17;;;28.68;48.77
60646;BME280;46462;32.608;-117.032;2023-08-20T09:28:03;98485.02;;;28.67;48.72
60646;BME280;46462;32.608;-117.032;2023-08-20T09:30:30;98487.97;;;28.66;48.71
60646;BME280;46462;32.608;-117.032;2023-08-20T09:33:06;98483.59;;;28.68;48.67
60646;BME280;46462;32.608;-117.032;2023-08-20T09:35:31;98479.20;;;28.70;48.62
60646;BME280;46462;32.608;-117.032;2023-08-20T09:38:04;98471.49;;;28.73;48.55
60646;BME280;46462;32.608;-117.032;2023-08-20T09:40:33;98465.18;;;28.73;48.55
60646;BME280;46462;32.608;-117.032;2023-08-20T09:43:04;98463.91;;;28.72;48.61
60646;BME280;46462;32.608;-117.032;2023-08-20T09:45:35;98459.08;;;28.69;48.83
60646;BME280;46462;32.608;-117.032;2023-08-20T09:48:06;98464.28;;;28.69;48.93
60646;BME280;46462;32.608;-117.032;2023-08-20T09:50:36;98471.35;;;28.68;48.88
60646;BME280;46462;32.608;-117.032;2023-08-20T09:53:12;98468.91;;;28.67;49.01
60646;BME280;46462;32.608;-117.032;2023-08-20T09:55:36;98471.76;;;28.65;48.99
60646;BME280;46462;32.608;-117.032;2023-08-20T09:58:07;98466.37;;;28.66;48.93
60646;BME280;46462;32.608;-117.032;2023-08-20T10:00:38;98463.88;;;28.65;49.01
60646;BME280;46462;32.608;-117.032;2023-08-20T10:03:08;98464.36;;;28.65;48.97
60646;BME280;46462;32.608;-117.032;2023-08-20T10:05:38;98461.82;;;28.64;49.04
60646;BME280;46462;32.608;-117.032;2023-08-20T10:08:09;98455.82;;;28.66;48.95
60646;BME280;46462;32.608;-117.032;2023-08-20T10:10:39;98452.08;;;28.65;48.97
60646;BME280;46462;32.608;-117.032;2023-08-20T10:13:10;98445.52;;;28.65;48.90
60646;BME280;46462;32.608;-117.032;2023-08-20T10:15:41;98441.16;;;28.64;48.92
60646;BME280;46462;32.608;-117.032;2023-08-20T10:18:11;98427.12;;;28.65;49.08
60646;BME280;46462;32.608;-117.032;2023-08-20T10:20:42;98424.76;;;28.64;49.12
60646;BME280;46462;32.608;-117.032;2023-08-20T10:23:13;98421.25;;;28.65;49.15
60646;BME280;46462;32.608;-117.032;2023-08-20T10:25:43;98414.98;;;28.63;49.22
60646;BME280;46462;32.608;-117.032;2023-08-20T10:28:19;98412.11;;;28.63;49.12
60646;BME280;46462;32.608;-117.032;2023-08-20T10:33:15;98406.06;;;28.58;49.29
60646;BME280;46462;32.608;-117.032;2023-08-20T10:35:49;98398.66;;;28.58;49.26
60646;BME280;46462;32.608;-117.032;2023-08-20T10:38:17;98398.10;;;28.59;49.28
60646;BME280;46462;32.608;-117.032;2023-08-20T10:40:52;98401.59;;;28.56;49.37
60646;BME280;46462;32.608;-117.032;2023-08-20T10:48:18;98393.05;;;28.55;49.36
60646;BME280;46462;32.608;-117.032;2023-08-20T10:50:49;98387.14;;;28.52;49.45
60646;BME280;46462;32.608;-117.032;2023-08-20T10:53:22;98380.74;;;28.51;49.49
60646;BME280;46462;32.608;-117.032;2023-08-20T10:55:50;98376.69;;;28.49;49.52
60646;BME280;46462;32.608;-117.032;2023-08-20T10:58:24;98359.29;;;28.49;49.50
60646;BME280;46462;32.608;-117.032;2023-08-20T11:03:22;98344.81;;;28.47;49.58
60646;BME280;46462;32.608;-117.032;2023-08-20T11:05:52;98345.56;;;28.47;49.48
60646;BME280;46462;32.608;-117.032;2023-08-20T11:08:23;98344.24;;;28.48;49.51
60646;BME280;46462;32.608;-117.032;2023-08-20T11:10:54;98333.36;;;28.47;49.53
60646;BME280;46462;32.608;-117.032;2023-08-20T11:13:25;98323.79;;;28.45;49.56
60646;BME280;46462;32.608;-117.032;2023-08-20T11:15:55;98312.96;;;28.45;49.55
60646;BME280;46462;32.608;-117.032;2023-08-20T11:18:25;98296.47;;;28.47;49.44
60646;BME280;46462;32.608;-117.032;2023-08-20T11:20:56;98285.54;;;28.48;49.40
60646;BME280;46462;32.608;-117.032;2023-08-20T11:23:27;98276.34;;;28.49;49.33
60646;BME280;46462;32.608;-117.032;2023-08-20T11:25:57;98278.61;;;28.51;49.32
60646;BME280;46462;32.608;-117.032;2023-08-20T11:28:28;98268.79;;;28.51;49.28
60646;BME280;46462;32.608;-117.032;2023-08-20T11:30:58;98270.13;;;28.49;49.28
60646;BME280;46462;32.608;-117.032;2023-08-20T11:33:29;98283.79;;;28.49;49.28
60646;BME280;46462;32.608;-117.032;2023-08-20T11:35:59;98298.72;;;28.49;49.28
60646;BME280;46462;32.608;-117.032;2023-08-20T11:38:30;98298.92;;;28.51;49.21
60646;BME280;46462;32.608;-117.032;2023-08-20T11:41:01;98297.83;;;28.52;49.16
60646;BME280;46462;32.608;-117.032;2023-08-20T11:43:31;98292.23;;;28.50;49.18
60646;BME280;46462;32.608;-117.032;2023-08-20T11:46:02;98290.27;;;28.49;49.21
60646;BME280;46462;32.608;-117.032;2023-08-20T11:48:32;98288.44;;;28.48;49.21
60646;BME280;46462;32.608;-117.032;2023-08-20T11:51:03;98280.93;;;28.49;49.27
60646;BME280;46462;32.608;-117.032;2023-08-20T11:53:33;98269.27;;;28.47;49.26
60646;BME280;46462;32.608;-117.032;2023-08-20T11:56:04;98268.44;;;28.47;49.33
60646;BME280;46462;32.608;-117.032;2023-08-20T11:58:35;98265.36;;;28.47;49.33
60646;BME280;46462;32.608;-117.032;2023-08-20T12:01:08;98252.67;;;28.46;49.35
60646;BME280;46462;32.608;-117.032;2023-08-20T12:03:38;98256.53;;;28.46;49.40
60646;BME280;46462;32.608;-117.032;2023-08-20T12:08:38;98275.07;;;28.46;49.39
60646;BME280;46462;32.608;-117.032;2023-08-20T12:11:08;98274.51;;;28.47;49.42
60646;BME280;46462;32.608;-117.032;2023-08-20T12:13:38;98264.96;;;28.47;49.41
60646;BME280;46462;32.608;-117.032;2023-08-20T12:16:09;98260.81;;;28.45;49.48
60646;BME280;46462;32.608;-117.032;2023-08-20T12:18:39;98266.94;;;28.46;49.42
60646;BME280;46462;32.608;-117.032;2023-08-20T12:21:10;98253.49;;;28.45;49.49
60646;BME280;46462;32.608;-117.032;2023-08-20T12:23:41;98251.97;;;28.46;49.49
60646;BME280;46462;32.608;-117.032;2023-08-20T12:26:11;98262.35;;;28.45;49.48
60646;BME280;46462;32.608;-117.032;2023-08-20T12:28:42;98286.37;;;28.45;49.52
60646;BME280;46462;32.608;-117.032;2023-08-20T12:31:12;98280.66;;;28.43;49.58
60646;BME280;46462;32.608;-117.032;2023-08-20T12:33:43;98270.23;;;28.40;49.61
60646;BME280;46462;32.608;-117.032;2023-08-20T12:36:13;98265.16;;;28.39;49.65
60646;BME280;46462;32.608;-117.032;2023-08-20T12:38:44;98261.59;;;28.37;49.66
60646;BME280;46462;32.608;-117.032;2023-08-20T12:41:14;98258.08;;;28.36;49.68
60646;BME280;46462;32.608;-117.032;2023-08-20T12:43:45;98265.35;;;28.36;49.67
60646;BME280;46462;32.608;-117.032;2023-08-20T12:46:16;98269.98;;;28.36;49.65
60646;BME280;46462;32.608;-117.032;2023-08-20T12:48:46;98263.48;;;28.34;49.69
60646;BME280;46462;32.608;-117.032;2023-08-20T12:51:17;98268.45;;;28.34;49.74
60646;BME280;46462;32.608;-117.032;2023-08-20T12:53:48;98263.90;;;28.32;49.74
60646;BME280;46462;32.608;-117.032;2023-08-20T12:56:18;98263.39;;;28.33;49.72
60646;BME280;46462;32.608;-117.032;2023-08-20T12:58:48;98262.48;;;28.30;49.76
60646;BME280;46462;32.608;-117.032;2023-08-20T13:01:19;98256.82;;;28.30;49.76